Airfield :
LOGIN :

Register | Disclaimer

   EN    FR    IT 

 










Legend :    VFR   Marginal VFR   IFR   Intensive IFR   Very Intensive IFR
Visi :
Ceiling :
>= 8 km
>= 3000ft
5 to 8 km
1000 to 3000 ft
1500m to 5 km
500 to 1000 ft
800 to 1500m
200 to 500 ft
< 800m
< 200 ft
Symbols :   Thunderstorms  Fog  Heavy snow  Heavy precipitations  Wind > 20 kt
SIGMETs :     Misc.  Thunderstorms  Icing  Turbulence  Mountain Waves  Volcanic Ashes







- Airport Elevation : 1046 ft
- IATA code : NUE


EDDN - Nuremberg

CURRENT METAR :
  • 210920Z 17010KT CAVOK 25/13 Q1012 BECMG 24012KT

EXPIRED METARs :
  • 210850Z 16008KT 130V240 CAVOK 24/13 Q1012 BECMG 22007KT
  • 210820Z 16008KT 130V190 CAVOK 22/13 Q1012 BECMG 22007KT
  • 210750Z 16008KT CAVOK 22/13 Q1012 BECMG 22007KT
  • 210720Z 15007KT CAVOK 20/13 Q1012 BECMG 22007KT
  • 210650Z 15007KT CAVOK 19/13 Q1013 BECMG 22007KT

TAF TAF EDDN
Valid from the 21 at 06:00 until the 22 at 06:00 UTC


210500Z 2106/2206 15006KT CAVOK
BECMG 2108/2111 24012KT
TEMPO 2113/2118 25015G30KT
PROB30
TEMPO 2114/2116 25025G40KT TSRA SCT050CB
PROB30
TEMPO 2116/2118 26020G30KT RA
BECMG 2118/2120 28007KT
No reported NOTAMs for that airfield.



MET'MAP, your aeronautical weather chart ! - Copyright ORBIFLY December 2007 - Disclaimer

ORBIFLY MET'MAP TEAM :

Programming & Development : Alexandra Zaïnal
Concept & Development : Baudouin d'Aumeries
Co-Development & Prog : Marc-Olivier Méhu
Technical & hardware support : Manuel Goepfert

Contact : metmap@orbifly.com




SOURCES & CREDITS :

   NOAA